Time;durP1;ratioP1;P1;durP2;ratioP2;P2;SDS_P1;SDS_P2;PMS_P1;PMS_P2;Temp;Humidity;BMP_temperature;BMP_pressure;BME280_temperature;BME280_humidity;BME280_pressure;Samples;Min_cycle;Max_cycle;Signal;HPM_P1;HPM_P2
2021/08/04 00:01:39;;;;;;;50.17;46.10;;;;;;;16.06;100.00;101338.16;1971979;73;33054;-72
2021/08/04 00:07:06;;;;;;;50.87;46.67;;;;;;;15.74;100.00;101335.43;1971996;73;33523;-74
2021/08/04 00:12:50;;;;;;;49.10;45.00;;;;;;;15.82;100.00;101327.14;2016040;71;32915;-76
2021/08/04 00:18:35;;;;;;;49.83;45.83;;;;;;;15.72;100.00;101332.92;2016083;71;30970;-73
2021/08/04 00:24:00;;;;;;;50.53;46.43;;;;;;;15.67;100.00;101336.38;1972181;73;33456;-72
2021/08/04 00:29:25;;;;;;;48.40;44.50;;;;;;;15.50;100.00;101336.95;1971956;73;32968;-75
2021/08/04 00:34:50;;;;;;;53.10;48.97;;;;;;;15.43;100.00;101340.69;1971996;73;32968;-72
2021/08/04 00:40:15;;;;;;;52.23;47.93;;;;;;;15.39;100.00;101340.48;1972198;73;33475;-84
2021/08/04 00:46:02;;;;;;;51.23;47.23;;;;;;;15.38;100.00;101337.41;2016144;71;32916;-72
2021/08/04 00:51:26;;;;;;;50.90;46.87;;;;;;;15.18;100.00;101345.31;1972075;73;33400;-71
2021/08/04 00:56:52;;;;;;;50.90;46.90;;;;;;;15.19;100.00;101342.78;1972052;73;33485;-74
2021/08/04 01:02:23;;;;;;;51.00;46.73;;;;;;;15.28;100.00;101342.33;1972137;73;33457;-71
2021/08/04 01:07:53;;;;;;;50.67;46.50;;;;;;;15.25;100.00;101345.75;1972028;73;33388;-75
2021/08/04 01:13:22;;;;;;;52.67;48.37;;;;;;;15.18;100.00;101343.91;1971889;73;32977;-72
2021/08/04 01:18:52;;;;;;;57.33;52.87;;;;;;;15.25;100.00;101345.19;1972198;73;33383;-71
2021/08/04 01:24:18;;;;;;;56.03;51.53;;;;;;;15.22;100.00;101349.16;1971975;73;33045;-83
2021/08/04 01:29:47;;;;;;;54.70;50.40;;;;;;;15.07;100.00;101344.63;1971931;73;32974;-75
2021/08/04 01:35:14;;;;;;;56.27;51.67;;;;;;;14.98;100.00;101338.87;1971903;73;32875;-83
2021/08/04 01:40:40;;;;;;;52.63;48.57;;;;;;;14.92;100.00;101344.88;1961185;72;33413;-75
2021/08/04 01:46:11;;;;;;;54.50;50.23;;;;;;;14.97;100.00;101346.20;1972139;73;33468;-84
2021/08/04 01:51:38;;;;;;;55.93;51.23;;;;;;;14.93;100.00;101347.94;1972251;73;32983;-84
2021/08/04 01:57:05;;;;;;;59.13;54.07;;;;;;;14.78;100.00;101344.78;1971892;73;32882;-84
2021/08/04 02:02:30;;;;;;;57.10;52.63;;;;;;;14.84;100.00;101349.74;1972012;73;32973;-75
2021/08/04 02:08:03;;;;;;;57.30;52.70;;;;;;;14.73;100.00;101346.24;1971939;73;33022;-83
2021/08/04 02:10:38;;;;;;;55.77;51.37;;;;;;;14.67;100.00;101354.45;1934433;74;26180;-84
2021/08/04 02:13:13;;;;;;;57.27;52.63;;;;;;;14.45;100.00;101355.58;1934969;74;26196;-71
2021/08/04 02:18:41;;;;;;;57.93;53.23;;;;;;;14.55;100.00;101354.87;1972062;73;33372;-76
2021/08/04 02:24:06;;;;;;;58.83;54.03;;;;;;;14.42;100.00;101351.41;1972040;73;32882;-75
2021/08/04 02:29:34;;;;;;;55.30;51.00;;;;;;;14.30;100.00;101350.97;1971823;73;32947;-75
2021/08/04 02:35:00;;;;;;;57.63;52.93;;;;;;;14.42;100.00;101345.81;1972017;73;33011;-75
2021/08/04 02:40:25;;;;;;;57.30;52.70;;;;;;;14.39;100.00;101344.19;1963705;73;32947;-75
2021/08/04 02:45:52;;;;;;;59.37;54.67;;;;;;;14.27;100.00;101348.78;1971920;73;32962;-75
2021/08/04 02:51:20;;;;;;;60.40;55.40;;;;;;;14.29;100.00;101344.30;1972113;73;32973;-71
2021/08/04 02:56:51;;;;;;;56.23;51.73;;;;;;;14.41;100.00;101342.78;1972012;73;33079;-76
2021/08/04 03:02:16;;;;;;;56.10;51.53;;;;;;;14.35;100.00;101348.15;1972037;73;33441;-75
2021/08/04 03:07:40;;;;;;;60.77;55.77;;;;;;;14.64;100.00;101343.02;1971930;73;33015;-84
2021/08/04 03:13:08;;;;;;;53.50;49.20;;;;;;;14.58;100.00;101345.91;1971799;73;32879;-76
2021/08/04 03:18:33;;;;;;;56.90;52.37;;;;;;;14.35;100.00;101339.77;1971919;73;32884;-76
2021/08/04 03:23:58;;;;;;;56.37;51.90;;;;;;;14.55;100.00;101342.85;1972020;73;33018;-84
2021/08/04 03:29:23;;;;;;;56.40;51.73;;;;;;;14.59;100.00;101348.11;1971973;73;32899;-72
2021/08/04 03:34:48;;;;;;;55.03;50.77;;;;;;;14.39;100.00;101349.22;1971936;73;32952;-75
2021/08/04 03:40:14;;;;;;;55.90;51.50;;;;;;;14.27;100.00;101340.39;1971888;73;32987;-71
2021/08/04 03:45:38;;;;;;;55.60;51.00;;;;;;;14.53;100.00;101341.77;1972065;73;32938;-76
2021/08/04 03:51:05;;;;;;;55.67;51.23;;;;;;;14.48;100.00;101343.23;1972171;73;33443;-83
2021/08/04 03:56:29;;;;;;;53.40;49.30;;;;;;;14.50;100.00;101339.55;1972257;73;33407;-72
2021/08/04 04:01:54;;;;;;;53.70;49.43;;;;;;;14.36;100.00;101347.59;1914236;73;39753;-83
2021/08/04 04:07:18;;;;;;;55.33;50.93;;;;;;;14.16;100.00;101348.64;1971846;73;32894;-82
2021/08/04 04:12:43;;;;;;;56.10;51.80;;;;;;;14.24;100.00;101360.56;1972118;73;32984;-82
2021/08/04 04:18:08;;;;;;;58.37;53.67;;;;;;;14.15;100.00;101366.53;1971939;73;32880;-83
2021/08/04 04:23:33;;;;;;;59.33;54.40;;;;;;;14.35;100.00;101359.33;1971820;73;32943;-75
2021/08/04 04:28:57;;;;;;;59.77;54.90;;;;;;;14.43;100.00;101360.62;1971845;73;32860;-76
2021/08/04 04:34:22;;;;;;;57.23;52.43;;;;;;;14.32;100.00;101364.09;1972046;73;32958;-75
2021/08/04 04:39:52;;;;;;;58.80;53.90;;;;;;;14.33;100.00;101383.09;1971301;71;32876;-75
2021/08/04 04:45:17;;;;;;;58.43;53.53;;;;;;;14.38;100.00;101369.91;1972048;73;32972;-76
2021/08/04 04:50:41;;;;;;;58.07;53.40;;;;;;;14.39;100.00;101369.34;1971875;73;32959;-72
2021/08/04 04:56:08;;;;;;;57.87;53.20;;;;;;;14.12;100.00;101365.70;1972383;73;33385;-82
2021/08/04 05:01:33;;;;;;;60.63;55.83;;;;;;;14.06;100.00;101373.33;1972260;73;33505;-72
2021/08/04 05:06:58;;;;;;;61.87;56.73;;;;;;;14.08;100.00;101372.45;1971936;73;32865;-76
2021/08/04 05:12:22;;;;;;;59.60;54.80;;;;;;;14.34;100.00;101374.95;1972115;73;32870;-72
2021/08/04 05:17:47;;;;;;;58.97;54.40;;;;;;;14.34;100.00;101380.55;1971934;73;32871;-71
2021/08/04 05:23:12;;;;;;;63.30;58.30;;;;;;;14.36;100.00;101382.52;1971849;73;32886;-76
2021/08/04 05:28:36;;;;;;;61.97;57.17;;;;;;;14.44;100.00;101379.91;1971860;73;32933;-76
2021/08/04 05:34:01;;;;;;;61.87;57.07;;;;;;;14.49;100.00;101374.82;1971839;73;32950;-76
2021/08/04 05:39:25;;;;;;;57.07;52.37;;;;;;;14.51;100.00;101385.12;1971836;73;32880;-76
2021/08/04 05:44:50;;;;;;;63.27;58.07;;;;;;;14.77;100.00;101379.47;1971879;73;32965;-76
2021/08/04 05:50:15;;;;;;;63.27;58.57;;;;;;;14.73;100.00;101384.56;1972112;73;33017;-72
2021/08/04 05:55:39;;;;;;;62.37;57.40;;;;;;;15.00;100.00;101392.58;1971877;73;32880;-80
2021/08/04 06:01:04;;;;;;;60.20;55.37;;;;;;;14.99;100.00;101394.27;1972054;73;32894;-75
2021/08/04 06:06:31;;;;;;;58.93;54.37;;;;;;;14.94;100.00;101395.73;1972030;73;33372;-75
2021/08/04 06:11:56;;;;;;;63.83;58.50;;;;;;;15.21;100.00;101395.91;1972211;73;33375;-78
2021/08/04 06:17:20;;;;;;;60.70;56.00;;;;;;;15.43;100.00;101395.28;1971927;73;33559;-75
2021/08/04 06:22:45;;;;;;;65.37;60.17;;;;;;;15.52;100.00;101401.89;1959914;71;33552;-79
2021/08/04 06:28:09;;;;;;;61.17;56.30;;;;;;;15.69;100.00;101401.33;1972239;73;33395;-71
2021/08/04 06:33:35;;;;;;;66.17;61.17;;;;;;;15.80;100.00;101402.80;1972014;73;33366;-75
2021/08/04 06:39:00;;;;;;;68.37;63.30;;;;;;;15.86;100.00;101406.63;1972006;73;32973;-76
2021/08/04 06:44:25;;;;;;;66.13;60.77;;;;;;;15.97;100.00;101405.86;1972022;73;33454;-74
2021/08/04 06:49:54;;;;;;;66.63;61.63;;;;;;;15.96;100.00;101406.19;1972040;73;33459;-75
2021/08/04 06:55:19;;;;;;;64.23;59.43;;;;;;;16.15;100.00;101403.56;1971977;73;32967;-72
2021/08/04 07:00:43;;;;;;;64.60;59.80;;;;;;;16.18;100.00;101395.93;1972027;73;32896;-76
2021/08/04 07:06:09;;;;;;;67.37;62.47;;;;;;;16.30;100.00;101403.27;1971799;73;32983;-75
2021/08/04 07:11:34;;;;;;;66.07;61.47;;;;;;;16.57;100.00;101398.80;1971840;73;32950;-76
2021/08/04 07:16:59;;;;;;;59.70;55.50;;;;;;;16.75;100.00;101404.91;1972099;73;33410;-77
2021/08/04 07:22:23;;;;;;;59.13;54.90;;;;;;;16.72;100.00;101396.56;1961826;71;32983;-80
2021/08/04 07:27:49;;;;;;;57.87;53.97;;;;;;;16.83;100.00;101398.00;1971959;73;32935;-82
2021/08/04 07:33:14;;;;;;;56.47;52.67;;;;;;;16.87;100.00;101404.38;1972320;73;30920;-82
2021/08/04 07:38:38;;;;;;;53.53;49.90;;;;;;;17.10;100.00;101404.70;1972107;73;33366;-83
2021/08/04 07:44:06;;;;;;;53.27;49.57;;;;;;;17.31;100.00;101400.28;1971822;73;32899;-77
2021/08/04 07:49:30;;;;;;;52.63;49.03;;;;;;;17.57;100.00;101391.49;1971824;73;33527;-78
2021/08/04 07:54:56;;;;;;;53.30;49.43;;;;;;;17.80;100.00;101376.87;1972109;73;31537;-74
2021/08/04 08:00:20;;;;;;;51.57;47.97;;;;;;;17.94;100.00;101375.39;1971836;73;30989;-75
2021/08/04 08:05:47;;;;;;;52.00;48.60;;;;;;;18.08;100.00;101369.11;1972115;73;31457;-75
2021/08/04 08:11:13;;;;;;;50.10;46.57;;;;;;;18.39;100.00;101366.27;1972050;73;33028;-74
2021/08/04 08:16:37;;;;;;;51.27;47.60;;;;;;;18.59;100.00;101367.94;1972059;73;31520;-74
2021/08/04 08:22:08;;;;;;;50.63;47.23;;;;;;;18.56;100.00;101355.11;1963279;71;31551;-83
2021/08/04 08:27:32;;;;;;;49.37;45.97;;;;;;;18.13;100.00;101359.13;1972207;73;31534;-75
2021/08/04 08:32:57;;;;;;;48.50;44.90;;;;;;;18.32;100.00;101356.88;1971982;73;31041;-80
2021/08/04 08:38:21;;;;;;;49.73;45.87;;;;;;;18.48;100.00;101357.29;1972004;73;30958;-82
2021/08/04 08:43:50;;;;;;;48.07;44.57;;;;;;;19.03;100.00;101359.84;1971998;73;31020;-69
2021/08/04 08:49:16;;;;;;;48.43;45.13;;;;;;;19.23;100.00;101357.52;1971969;73;30977;-68
2021/08/04 08:54:40;;;;;;;46.83;43.47;;;;;;;19.50;100.00;101358.05;1971902;73;30987;-75
2021/08/04 09:00:07;;;;;;;48.10;44.60;;;;;;;19.42;100.00;101358.86;1972071;73;31032;-70
2021/08/04 09:05:53;;;;;;;47.20;44.00;;;;;;;19.85;100.00;101355.97;1971828;73;33097;-75
2021/08/04 09:11:23;;;;;;;43.57;40.57;;;;;;;20.00;100.00;101352.63;1971949;73;30971;-71
2021/08/04 09:16:49;;;;;;;45.50;42.47;;;;;;;19.85;100.00;101352.35;1972191;73;31124;-79
2021/08/04 09:25:14;;;;;;;43.63;40.77;;;;;;;19.62;100.00;101341.86;2023461;71;30658;-77
2021/08/04 09:27:50;;;;;;;43.53;40.43;;;;;;;19.46;100.00;101340.16;1917045;75;24145;-79
2021/08/04 09:30:25;;;;;;;41.40;38.57;;;;;;;19.55;100.00;101340.94;1993819;72;24206;-78
2021/08/04 09:32:57;;;;;;;41.57;38.87;;;;;;;20.00;100.00;101333.47;1994035;72;24147;-76
2021/08/04 09:35:28;;;;;;;39.90;37.13;;;;;;;20.13;100.00;101334.41;1990726;72;24147;-81
2021/08/04 09:38:10;;;;;;;38.93;36.33;;;;;;;20.24;100.00;101342.16;1993839;72;24211;-80
2021/08/04 09:40:40;;;;;;;40.47;37.57;;;;;;;20.14;100.00;101343.95;1993923;72;26682;-73
2021/08/04 09:43:11;;;;;;;41.47;38.67;;;;;;;19.82;100.00;101348.20;1993831;72;24182;-72
2021/08/04 09:45:44;;;;;;;40.23;37.57;;;;;;;19.86;100.00;101340.72;1993842;72;24193;-82
2021/08/04 09:48:16;;;;;;;41.70;38.93;;;;;;;19.89;100.00;101337.25;1993853;72;24731;-72
2021/08/04 09:50:49;;;;;;;42.33;39.33;;;;;;;19.84;100.00;101335.19;1993883;72;24139;-81
2021/08/04 09:53:21;;;;;;;40.57;37.60;;;;;;;20.05;100.00;101338.93;1993883;72;24139;-72
2021/08/04 09:56:13;;;;;;;40.50;37.80;;;;;;;20.23;100.00;101336.88;1993833;72;24198;-72
2021/08/04 09:58:45;;;;;;;39.70;37.07;;;;;;;20.14;100.00;101334.66;1993841;72;24150;-79
2021/08/04 10:01:17;;;;;;;39.93;37.33;;;;;;;20.16;100.00;101335.14;1993819;72;24159;-72
2021/08/04 10:04:07;;;;;;;39.93;37.47;;;;;;;20.20;100.00;101328.48;1993772;72;24159;-72
2021/08/04 10:06:39;;;;;;;39.87;37.37;;;;;;;20.08;100.00;101326.96;1993893;72;24130;-72
2021/08/04 10:09:11;;;;;;;39.30;36.67;;;;;;;19.86;100.00;101330.84;1993900;72;24633;-81
2021/08/04 10:11:44;;;;;;;40.07;37.37;;;;;;;19.79;100.00;101329.14;1993861;72;24233;-72
2021/08/04 10:14:16;;;;;;;40.23;37.63;;;;;;;19.73;100.00;101328.23;1993860;72;24143;-72
2021/08/04 10:16:50;;;;;;;37.87;35.57;;;;;;;19.77;100.00;101329.21;1993931;72;24127;-72
2021/08/04 10:19:22;;;;;;;36.97;34.67;;;;;;;19.68;100.00;101325.00;1993811;72;24147;-72
2021/08/04 10:21:53;;;;;;;37.50;35.27;;;;;;;19.75;100.00;101324.51;1971999;72;24197;-70
2021/08/04 10:24:24;;;;;;;37.43;35.03;;;;;;;19.83;100.00;101321.66;1877396;75;24301;-79
2021/08/04 10:26:56;;;;;;;35.53;33.43;;;;;;;20.06;100.00;101318.61;1883578;76;24131;-79
2021/08/04 10:29:27;;;;;;;37.60;35.20;;;;;;;20.16;100.00;101313.98;1883430;76;24593;-70
2021/08/04 10:31:57;;;;;;;37.30;35.10;;;;;;;20.22;100.00;101311.23;1883512;76;24145;-78
2021/08/04 10:34:28;;;;;;;36.30;34.00;;;;;;;20.43;100.00;101311.57;1883347;76;24141;-78
2021/08/04 10:37:00;;;;;;;31.87;29.97;;;;;;;20.55;100.00;101310.00;1882817;76;24149;-70
2021/08/04 10:39:30;;;;;;;31.50;29.60;;;;;;;20.54;100.00;101304.93;1882917;76;24129;-70
2021/08/04 10:42:04;;;;;;;31.37;29.47;;;;;;;20.66;100.00;101304.22;1882871;76;24129;-70
2021/08/04 10:44:36;;;;;;;30.80;29.00;;;;;;;20.64;100.00;101304.55;1882698;76;24188;-79
2021/08/04 10:47:08;;;;;;;30.83;28.97;;;;;;;20.64;100.00;101309.36;1882824;76;26690;-70
2021/08/04 10:49:38;;;;;;;30.60;28.80;;;;;;;20.81;100.00;101305.84;1880221;74;24183;-70
2021/08/04 10:52:18;;;;;;;34.73;32.83;;;;;;;20.61;100.00;101299.59;1883047;76;24115;-78
2021/08/04 10:55:12;;;;;;;33.93;32.13;;;;;;;20.67;100.00;101300.20;1882855;76;24611;-71
2021/08/04 10:58:17;;;;;;;33.90;31.83;;;;;;;20.62;100.00;101306.07;1882854;76;24180;-80
2021/08/04 11:00:48;;;;;;;38.23;36.23;;;;;;;20.66;100.00;101310.70;1882838;76;24191;-80
2021/08/04 11:03:45;;;;;;;33.13;30.90;;;;;;;20.60;100.00;101304.16;1882793;76;24209;-71
2021/08/04 11:06:16;;;;;;;33.63;31.77;;;;;;;20.58;100.00;101300.87;1882822;76;24137;-80
2021/08/04 11:08:49;;;;;;;31.77;30.00;;;;;;;20.53;100.00;101302.47;1882818;76;24236;-71
2021/08/04 11:11:54;;;;;;;36.70;34.50;;;;;;;20.32;100.00;101306.66;1882815;76;24129;-72
2021/08/04 11:14:44;;;;;;;38.67;36.57;;;;;;;20.42;100.00;101307.08;1882782;76;24144;-80
2021/08/04 11:17:16;;;;;;;31.30;29.50;;;;;;;20.70;100.00;101305.19;1882780;76;24125;-71
2021/08/04 11:20:10;;;;;;;32.33;30.53;;;;;;;20.81;100.00;101305.84;1882827;76;24215;-71
2021/08/04 11:22:53;;;;;;;30.67;28.97;;;;;;;20.86;100.00;101300.58;1882819;75;24156;-80
2021/08/04 11:25:46;;;;;;;30.17;28.47;;;;;;;21.00;100.00;101305.95;1882779;76;26753;-71
2021/08/04 11:28:19;;;;;;;28.00;26.53;;;;;;;21.14;100.00;101302.28;1882801;76;24250;-71
2021/08/04 11:30:55;;;;;;;29.63;27.93;;;;;;;21.16;100.00;101295.71;1882880;76;24205;-80
2021/08/04 11:33:35;;;;;;;28.60;27.00;;;;;;;21.28;100.00;101288.12;1882876;76;24158;-80
2021/08/04 11:36:23;;;;;;;29.13;27.53;;;;;;;21.33;100.00;101291.31;1882827;76;24579;-79
2021/08/04 11:39:04;;;;;;;27.30;25.73;;;;;;;21.20;100.00;101301.73;1882953;76;24265;-79
2021/08/04 11:41:43;;;;;;;26.67;25.27;;;;;;;21.22;100.00;101294.34;1882881;76;24226;-71
2021/08/04 11:44:26;;;;;;;27.20;25.67;;;;;;;21.21;100.00;101286.45;1882751;76;24216;-80
2021/08/04 11:47:02;;;;;;;24.80;23.50;;;;;;;21.38;100.00;101287.45;1882709;76;24145;-71
2021/08/04 11:49:34;;;;;;;27.47;25.93;;;;;;;21.38;100.00;101285.45;1882770;76;24421;-79
2021/08/04 11:52:08;;;;;;;24.17;22.97;;;;;;;21.52;100.00;101287.36;1882848;76;24137;-80
2021/08/04 11:54:41;;;;;;;25.90;24.50;;;;;;;21.51;100.00;101282.91;1882790;76;24645;-71
2021/08/04 11:57:14;;;;;;;24.50;23.17;;;;;;;21.66;100.00;101282.23;1882833;76;24148;-79
2021/08/04 11:59:50;;;;;;;24.93;23.63;;;;;;;21.67;100.00;101283.89;1882774;76;24695;-71
2021/08/04 12:02:22;;;;;;;23.07;21.87;;;;;;;21.65;100.00;101284.81;1882818;76;24137;-79
2021/08/04 12:04:54;;;;;;;23.13;21.93;;;;;;;21.62;100.00;101280.45;1882752;76;24599;-71
2021/08/04 12:07:26;;;;;;;23.77;22.50;;;;;;;21.70;100.00;101271.04;1882810;76;24140;-71
2021/08/04 12:09:58;;;;;;;23.33;22.30;;;;;;;21.79;100.00;101278.25;1882783;76;24141;-71
2021/08/04 12:12:31;;;;;;;23.53;22.30;;;;;;;21.70;100.00;101276.11;1882797;76;24137;-72
2021/08/04 12:15:02;;;;;;;24.75;23.55;;;;;;;21.71;100.00;101271.28;1882831;76;24136;-71
2021/08/04 12:17:34;;;;;;;23.30;22.10;;;;;;;21.62;100.00;101269.97;1882747;76;24227;-71
2021/08/04 12:20:16;;;;;;;20.90;19.90;;;;;;;21.64;100.00;101266.22;1882905;76;24149;-71
2021/08/04 12:22:48;;;;;;;20.03;19.13;;;;;;;21.72;100.00;101268.13;1882762;75;24631;-80
2021/08/04 12:25:19;;;;;;;21.07;19.97;;;;;;;21.77;100.00;101270.73;1881701;76;24181;-72
2021/08/04 12:27:52;;;;;;;19.23;18.23;;;;;;;21.75;100.00;101269.41;1882952;76;24285;-80
2021/08/04 12:30:26;;;;;;;19.23;18.20;;;;;;;21.54;100.00;101265.82;1882751;76;24141;-72
2021/08/04 12:33:06;;;;;;;18.73;17.82;;;;;;;21.37;100.00;101263.17;1882766;76;24792;-71
2021/08/04 12:35:44;;;;;;;18.83;17.83;;;;;;;21.44;100.00;101264.84;1882769;76;26701;-72
2021/08/04 12:38:17;;;;;;;18.10;17.20;;;;;;;21.30;100.00;101267.41;1883041;76;24172;-80
2021/08/04 12:40:49;;;;;;;18.33;17.43;;;;;;;21.61;100.00;101257.59;1882820;76;24219;-80
2021/08/04 12:43:20;;;;;;;18.93;18.03;;;;;;;21.78;100.00;101260.21;1882676;76;24137;-80
2021/08/04 12:45:52;;;;;;;17.10;16.20;;;;;;;21.76;100.00;101262.00;1882744;76;24168;-80
2021/08/04 12:48:24;;;;;;;17.00;16.10;;;;;;;21.59;100.00;101260.78;1882725;76;24681;-72
2021/08/04 12:53:58;;;;;;;17.03;16.23;;;;;;;21.63;100.00;101246.18;1972081;73;31606;-73
2021/08/04 12:59:42;;;;;;;15.27;14.57;;;;;;;21.84;100.00;101235.36;1972173;73;31546;-72
2021/08/04 13:05:11;;;;;;;16.57;15.78;;;;;;;21.96;100.00;101238.23;1972016;73;30979;-69
2021/08/04 13:10:42;;;;;;;15.70;14.80;;;;;;;21.97;100.00;101238.47;1972255;73;31515;-72
2021/08/04 13:16:10;;;;;;;15.58;14.93;;;;;;;21.87;100.00;101236.06;1971920;73;30976;-75
2021/08/04 13:21:33;;;;;;;14.55;13.83;;;;;;;22.22;100.00;101225.39;1972011;73;31051;-75
2021/08/04 13:26:58;;;;;;;13.45;12.90;;;;;;;22.44;100.00;101228.31;1972017;73;31033;-75
2021/08/04 13:32:27;;;;;;;14.40;13.70;;;;;;;22.22;100.00;101224.55;1972062;73;31520;-75
2021/08/04 13:37:53;;;;;;;13.95;13.35;;;;;;;22.01;100.00;101225.27;1972055;73;31464;-75
2021/08/04 13:43:18;;;;;;;13.80;13.20;;;;;;;22.21;100.00;101220.07;1972164;73;31095;-78
2021/08/04 13:48:43;;;;;;;14.40;13.70;;;;;;;22.22;100.00;101218.89;1972038;73;31032;-75
2021/08/04 13:54:07;;;;;;;20.35;19.35;;;;;;;22.22;100.00;101211.82;1972115;73;31422;-74
2021/08/04 13:59:32;;;;;;;14.25;13.53;;;;;;;22.27;100.00;101213.00;1972048;73;31024;-75
2021/08/04 14:04:56;;;;;;;14.07;13.43;;;;;;;22.23;100.00;101207.82;1971864;73;30961;-75
2021/08/04 14:10:24;;;;;;;13.10;12.50;;;;;;;21.95;100.00;101212.56;1971971;73;30981;-70
2021/08/04 14:15:49;;;;;;;13.50;12.90;;;;;;;22.13;100.00;101210.53;1972132;73;31059;-69
2021/08/04 14:21:13;;;;;;;13.20;12.40;;;;;;;22.33;100.00;101207.34;1972193;73;31488;-75
2021/08/04 14:26:44;;;;;;;12.35;11.85;;;;;;;22.23;100.00;101194.50;1971951;73;31032;-80
2021/08/04 14:32:11;;;;;;;12.25;11.75;;;;;;;22.07;100.00;101191.33;1971898;73;31099;-75
2021/08/04 14:37:42;;;;;;;12.67;11.97;;;;;;;21.58;100.00;101183.38;1972044;72;31053;-72
2021/08/04 14:43:07;;;;;;;12.40;11.80;;;;;;;21.48;100.00;101183.23;1971943;73;31000;-75
2021/08/04 14:48:31;;;;;;;12.80;12.07;;;;;;;21.77;100.00;101180.81;1972126;73;33400;-75
2021/08/04 14:53:56;;;;;;;12.67;12.07;;;;;;;22.06;100.00;101172.70;1971889;73;31447;-75
2021/08/04 14:59:20;;;;;;;11.90;11.40;;;;;;;21.84;100.00;101180.22;1972150;73;33381;-72
2021/08/04 15:04:45;;;;;;;12.53;11.93;;;;;;;22.08;100.00;101171.74;1972148;73;31451;-75
2021/08/04 15:10:12;;;;;;;12.93;12.23;;;;;;;22.27;100.00;101169.13;1972116;73;31413;-75
2021/08/04 15:15:38;;;;;;;12.17;11.57;;;;;;;22.27;100.00;101173.38;1972084;73;31083;-69
2021/08/04 15:21:03;;;;;;;12.15;11.63;;;;;;;22.40;100.00;101172.17;1972092;73;31542;-72
2021/08/04 15:26:27;;;;;;;11.93;11.40;;;;;;;22.38;100.00;101174.52;1972275;73;30965;-70
2021/08/04 15:31:56;;;;;;;12.20;11.70;;;;;;;22.20;100.00;101171.16;1971916;73;30960;-75
2021/08/04 15:37:21;;;;;;;12.05;11.53;;;;;;;22.29;100.00;101165.37;1971891;73;31090;-75
2021/08/04 15:42:45;;;;;;;12.58;11.97;;;;;;;22.33;100.00;101152.74;1971922;73;30945;-75
2021/08/04 15:48:10;;;;;;;12.53;12.03;;;;;;;22.44;100.00;101153.88;1972015;73;31184;-78
2021/08/04 15:53:35;;;;;;;12.37;11.88;;;;;;;22.46;100.00;101149.50;1971912;72;31056;-75
2021/08/04 15:59:01;;;;;;;13.28;12.68;;;;;;;22.30;100.00;101146.36;1971931;73;31406;-75
2021/08/04 16:04:25;;;;;;;12.80;12.10;;;;;;;22.46;100.00;101137.38;1971995;73;31091;-78
2021/08/04 16:10:12;;;;;;;12.50;11.90;;;;;;;22.48;100.00;101136.41;2016271;71;30861;-80
2021/08/04 16:15:37;;;;;;;12.53;11.97;;;;;;;22.22;100.00;101132.00;1972004;73;30960;-69
2021/08/04 16:21:03;;;;;;;13.30;12.60;;;;;;;22.27;100.00;101123.85;1964213;73;30969;-78
2021/08/04 16:26:27;;;;;;;12.25;11.75;;;;;;;22.37;100.00;101123.95;1971934;73;31033;-75
2021/08/04 16:31:53;;;;;;;12.93;12.33;;;;;;;22.22;100.00;101122.09;1971909;73;31011;-75
2021/08/04 16:37:17;;;;;;;13.03;12.43;;;;;;;22.31;100.00;101121.13;1972224;73;31512;-75
2021/08/04 16:42:43;;;;;;;12.82;12.15;;;;;;;22.08;100.00;101122.23;1971944;73;31046;-75
2021/08/04 16:48:12;;;;;;;12.93;12.33;;;;;;;22.09;100.00;101109.73;1971995;73;31030;-69
2021/08/04 16:53:36;;;;;;;11.88;11.38;;;;;;;22.23;100.00;101107.36;1972161;73;31513;-69
2021/08/04 16:59:01;;;;;;;14.05;13.35;;;;;;;22.12;100.00;101097.73;1971967;72;31018;-77
2021/08/04 17:04:25;;;;;;;14.65;13.85;;;;;;;22.09;100.00;101093.59;1972162;73;31156;-75
2021/08/04 17:09:51;;;;;;;12.90;12.30;;;;;;;22.12;100.00;101092.06;1972035;73;31041;-74
2021/08/04 17:15:16;;;;;;;12.80;12.10;;;;;;;22.05;100.00;101094.07;1971888;73;31063;-75
2021/08/04 17:20:41;;;;;;;12.23;11.63;;;;;;;22.03;100.00;101087.96;1971910;73;30959;-72
2021/08/04 17:26:06;;;;;;;12.90;12.30;;;;;;;22.05;100.00;101096.07;1971997;73;30965;-75
2021/08/04 17:31:31;;;;;;;12.68;12.18;;;;;;;21.86;100.00;101094.44;1972062;73;30971;-75
2021/08/04 17:36:58;;;;;;;14.05;13.35;;;;;;;21.53;100.00;101095.97;1971900;73;30964;-75
2021/08/04 17:42:23;;;;;;;13.10;12.40;;;;;;;21.60;100.00;101089.16;1937293;74;31551;-75
2021/08/04 17:47:47;;;;;;;13.03;12.40;;;;;;;21.57;100.00;101087.84;1972181;73;31066;-75
2021/08/04 17:53:12;;;;;;;12.75;12.07;;;;;;;21.56;100.00;101084.80;1971912;73;30971;-75
2021/08/04 17:58:36;;;;;;;12.83;12.23;;;;;;;21.58;100.00;101087.25;1971914;73;30960;-75
2021/08/04 18:04:02;;;;;;;12.35;11.75;;;;;;;21.60;100.00;101090.56;1971926;73;30960;-75
2021/08/04 18:09:26;;;;;;;12.75;12.10;;;;;;;21.44;100.00;101091.84;1971895;73;30970;-75
2021/08/04 18:14:51;;;;;;;12.70;12.20;;;;;;;21.35;100.00;101091.95;1971906;73;31120;-75
2021/08/04 18:20:16;;;;;;;13.55;12.85;;;;;;;21.54;100.00;101095.63;1972192;73;31412;-75
2021/08/04 18:25:41;;;;;;;12.90;12.13;;;;;;;21.60;100.00;101095.64;1972086;73;31068;-75
2021/08/04 18:31:25;;;;;;;13.05;12.30;;;;;;;21.55;100.00;101095.04;2016368;71;30967;-75
2021/08/04 18:37:09;;;;;;;13.40;12.70;;;;;;;21.57;100.00;101103.97;2002039;71;30909;-74
2021/08/04 18:42:34;;;;;;;13.80;13.10;;;;;;;21.41;100.00;101098.80;1971953;73;31076;-75
2021/08/04 18:48:00;;;;;;;13.57;12.77;;;;;;;21.31;100.00;101099.48;1972116;72;31619;-75
2021/08/04 18:50:28;;;;;;;14.07;13.40;;;;;;;;;;1934711;74;24236;-76
2021/08/04 18:55:58;;;;;;;13.93;13.13;;;;;;;21.33;100.00;101106.21;1972101;73;30988;-75
2021/08/04 19:01:23;;;;;;;14.50;13.72;;;;;;;21.16;100.00;101110.66;1971950;73;30987;-75
2021/08/04 19:06:47;;;;;;;14.30;13.53;;;;;;;21.15;100.00;101112.66;1971940;73;30977;-75
2021/08/04 19:12:12;;;;;;;15.27;14.57;;;;;;;20.96;100.00;101122.24;1971829;73;31087;-75
2021/08/04 19:17:37;;;;;;;15.83;15.03;;;;;;;20.84;100.00;101119.36;1971904;73;31034;-75
2021/08/04 19:23:05;;;;;;;18.73;17.47;;;;;;;20.75;100.00;101127.12;1972044;73;31653;-75
2021/08/04 19:28:31;;;;;;;19.87;18.87;;;;;;;20.75;100.00;101125.70;1971908;73;30984;-75
2021/08/04 19:33:56;;;;;;;22.80;21.50;;;;;;;20.51;100.00;101126.41;1971887;73;31071;-75
2021/08/04 19:39:22;;;;;;;23.83;22.53;;;;;;;20.48;100.00;101128.52;1972155;73;31533;-75
2021/08/04 19:44:47;;;;;;;26.67;25.37;;;;;;;20.34;100.00;101119.50;1972022;73;31481;-75
2021/08/04 19:50:14;;;;;;;30.10;28.40;;;;;;;20.29;100.00;101129.00;1972060;73;31073;-75
2021/08/04 19:55:40;;;;;;;32.57;30.57;;;;;;;20.21;100.00;101138.91;1972116;73;31437;-75
2021/08/04 20:01:04;;;;;;;33.00;31.10;;;;;;;20.09;100.00;101148.12;1972045;73;30917;-75
2021/08/04 20:06:29;;;;;;;34.33;32.20;;;;;;;20.03;100.00;101144.41;1972134;72;31000;-75
2021/08/04 20:11:53;;;;;;;35.97;33.87;;;;;;;20.00;100.00;101151.58;1972035;73;31436;-75
2021/08/04 20:17:18;;;;;;;36.73;34.40;;;;;;;19.83;100.00;101146.03;1971861;73;31008;-75
2021/08/04 20:22:43;;;;;;;37.37;35.00;;;;;;;19.78;100.00;101147.64;1972137;73;30936;-75
2021/08/04 20:28:09;;;;;;;37.23;34.83;;;;;;;19.73;100.00;101143.59;1972070;73;30986;-75
2021/08/04 20:33:33;;;;;;;38.37;35.87;;;;;;;19.55;100.00;101141.47;1972025;73;30956;-75
2021/08/04 20:38:58;;;;;;;38.90;36.47;;;;;;;19.55;100.00;101135.23;1972071;73;31453;-75